Decoded Metar for KACV (ARCATA/EUREKA in CA, USA) (IATA:ACV) | Meteo·Mobile Aviation Weather
aviador You're here:

KACV Decoded Metar

ARCATA/EUREKA in CA, USA
Report Time2018-11-20 14:53:00
UTC Time2018-11-20 15:31:06
Flight Rules vfr VFR
Wind070° at 04 kt
W.Decomp.*RWY 01: 2.9 kt HW 2.7 kt RCW
RWY 14: 0.2 kt HW 4 kt LCW
W.Rank070° ranks 30
Current wind is above 070° avg. (3.4)
Visibility9999 m
Phenomena:N/A
Clouds:N/A
Expected CloudBase > 800 ft AGL from Temp-Dew spread
CeilingNone
Temp03°C (ISA -12)
Dew Point01°C (87% RH)
AAT-0.3°C
QNH1013 hPa
Density Alt-1,093 ft
Elevation220 ft
Report Wrong Elevation
Raw Report
KACV 201453Z AUTO 07004KT 10SM CLR 03/01 A2992 RMK AO2 SLP138
T00280011 56016=

Extra information for KACV:More info

Metar Taf Metar & Taf Last 4 Metars F.Rules Stats Wind Profile Meteogram Temp Stats Airport Information Weather charts Add Link Nearby VenuesMetar ALERT Operation Metar Decoded Social comments

AIRNAV info for KACV